Latest Weather Observations for Point Fawcett

IDD60901

Issued at 8:21 pm CST Sunday 24 March 2019 (issued every 10 minutes, with the page automatically refreshed every 10 minutes)

About weather observations | Map of Darwin area stations | Latest observations for Darwin area | Other Formats
Station Details ID: 200731 Name: POINT FAWCETT Lat: -11.76 Lon: 130.03 Height: 6.5 m
Data from the previous 72 hours. | See also: Recent months at Point Fawcett
Date/Time
CST
Temp
°C
App
Temp
°C
Dew
Point
°C
Rel
Hum
%
Delta-T
°C
Wind Press
QNH
hPa
Press
MSL
hPa
Rain since
9am
mm
Dir  Spd
km/h
Gust
km/h
Spd
kts
Gust
kts
24/08:00pm 25.8 29.3 23.5 87 1.6 NNE 11 20 6 11 1009.4 - 9.6
24/07:30pm 26.6 29.5 24.4 88 1.5 NNW 17 26 9 14 1008.4 - 9.4
24/07:00pm 27.0 30.0 25.2 90 1.3 N 19 32 10 17 1007.9 - 9.2
24/06:30pm 27.8 32.7 25.8 89 1.4 N 11 19 6 10 1007.4 - 6.8
24/06:00pm 28.3 32.1 25.9 87 1.7 N 17 22 9 12 1007.5 1007.4 2.6
24/05:30pm 28.5 32.3 25.9 86 1.8 N 17 24 9 13 1007.5 - 0.2
24/05:00pm 28.5 32.2 25.7 85 2.0 N 17 24 9 13 1007.3 - 0.2
24/04:30pm 28.5 31.6 25.7 85 2.0 NNW 20 30 11 16 1007.1 - 0.2
24/04:00pm 28.6 31.0 25.8 85 2.0 NNW 24 33 13 18 1006.9 - 0.2
24/03:30pm 29.2 31.5 25.6 81 2.5 NNW 24 32 13 17 1006.4 - 0.2
24/03:00pm 29.7 32.1 26.3 82 2.4 NNW 26 35 14 19 1006.5 1006.4 0.2
24/02:30pm 29.1 32.0 25.9 83 2.3 NNW 22 28 12 15 1007.0 - 0.2
24/02:00pm 29.0 31.3 25.6 82 2.4 NNW 24 33 13 18 1007.4 - 0.2
24/01:30pm 29.1 31.7 25.5 81 2.5 NNW 22 32 12 17 1007.8 - 0.2
24/01:00pm 29.2 32.8 25.6 81 2.5 N 17 22 9 12 1008.3 - 0.2
24/12:30pm 29.0 33.0 25.6 82 2.4 N 15 20 8 11 1008.7 - 0.2
24/12:00pm 28.9 32.2 25.7 83 2.3 NNW 19 24 10 13 1008.9 1008.8 0.2
24/11:30am 28.4 31.5 25.4 84 2.1 NNW 19 26 10 14 1009.0 - 0.2
24/11:00am 27.7 30.3 24.9 85 2.0 NNW 20 26 11 14 1009.2 - 0.2
24/10:30am 27.0 31.1 25.2 90 1.3 N 13 17 7 9 1009.4 - 0.2
24/10:00am 26.2 30.6 25.0 93 0.8 NNE 11 17 6 9 1009.4 - 0.2
24/09:30am 25.6 29.5 24.2 92 1.0 NNE 11 17 6 9 1009.5 - 0.2
24/09:00am 24.9 28.4 23.5 92 1.0 NNW 11 17 6 9 1009.4 1009.3 31.4
24/08:30am 25.1 29.0 24.2 95 0.6 N 11 17 6 9 1009.3 - 30.6
24/08:00am 24.7 28.0 23.8 95 0.6 NW 13 20 7 11 1009.2 - 30.2
24/07:30am 24.5 26.4 22.7 90 1.2 ESE 17 30 9 16 1009.0 - 18.6
24/07:00am 26.0 29.6 24.4 91 1.1 N 13 35 7 19 1007.6 - 18.0
24/06:43am 27.0 28.3 25.2 90 1.3 W 28 50 15 27 1007.6 - 3.0
24/06:30am 26.6 29.8 23.7 84 2.0 NE 13 20 7 11 1007.3 - 1.0
24/06:00am 27.3 31.5 23.1 78 2.9 NE 6 9 3 5 1007.2 1007.1 1.0
24/05:30am 29.3 32.9 26.1 83 2.3 W 19 24 10 13 1006.5 - 1.0
24/05:00am 29.7 32.6 26.5 83 2.3 WSW 24 33 13 18 1006.0 - 1.0
24/04:30am 29.2 31.4 26.0 83 2.3 W 26 33 14 18 1005.9 - 1.0
24/04:00am 28.5 30.2 24.1 77 3.0 W 22 35 12 19 1006.1 - 1.0
24/03:30am 29.4 32.1 26.2 83 2.3 W 24 33 13 18 1006.5 - 1.0
24/03:00am 29.4 30.8 26.6 85 2.0 W 32 43 17 23 1006.0 1005.9 1.0
24/02:30am 28.9 31.5 26.1 85 2.0 W 24 32 13 17 1006.4 - 0.8
24/02:00am 28.8 31.6 26.4 87 1.7 WNW 24 30 13 16 1006.7 - 0.8
24/01:30am 29.6 32.4 26.4 83 2.3 WNW 24 30 13 16 1006.8 - 0.0
24/01:00am 29.6 32.3 26.2 82 2.4 WNW 24 30 13 16 1006.8 - 0.0
24/12:30am 29.8 33.5 26.6 83 2.3 WNW 20 24 11 13 1007.2 - 0.0
24/12:00am 29.6 32.9 26.0 81 2.6 W 20 28 11 15 1007.1 1007.0 0.0
 
Date/Time
CST
Temp
°C
App
Temp
°C
Dew
Point
°C
Rel
Hum
%
Delta-T
°C
Wind Press
QNH
hPa
Press
MSL
hPa
Rain since
9am
mm
Dir  Spd
km/h
Gust
km/h
Spd
kts
Gust
kts
23/11:30pm 29.7 32.3 26.1 81 2.6 W 24 32 13 17 1007.2 - 0.0
23/11:00pm 29.7 32.6 25.9 80 2.7 W 22 30 12 16 1007.9 - 0.0
23/10:30pm 29.7 32.3 26.1 81 2.6 W 24 32 13 17 1007.9 - 0.0
23/10:00pm 29.8 32.0 26.0 80 2.7 W 26 33 14 18 1007.8 - 0.0
23/09:30pm 29.8 31.1 25.8 79 2.8 W 30 37 16 20 1007.1 - 0.0
23/09:00pm 29.8 31.2 26.0 80 2.7 W 30 37 16 20 1006.6 1006.5 0.0
23/08:30pm 29.9 31.0 26.1 80 2.7 W 32 44 17 24 1006.0 - 0.0
23/08:00pm 30.0 30.8 26.0 79 2.8 W 33 46 18 25 1005.9 - 0.0
23/07:30pm 30.0 31.1 26.2 80 2.7 W 32 41 17 22 1006.2 - 0.0
23/07:00pm 29.9 30.8 26.1 80 2.7 W 33 41 18 22 1005.9 - 0.0
23/06:30pm 29.9 30.4 26.1 80 2.7 W 35 44 19 24 1005.2 - 0.0
23/06:00pm 30.0 31.4 26.6 82 2.4 WNW 32 41 17 22 1005.9 1005.8 0.0
23/05:30pm 30.1 31.3 26.5 81 2.6 W 33 44 18 24 1005.6 - 0.0
23/05:00pm 30.0 31.0 26.2 80 2.7 W 33 44 18 24 1005.2 - 0.0
23/04:30pm 30.3 30.7 26.0 78 3.1 W 35 46 19 25 1005.1 - 0.0
23/04:00pm 30.6 31.8 26.3 78 3.1 W 32 43 17 23 1004.9 - 0.0
23/03:30pm 30.8 32.0 26.3 77 3.2 W 32 41 17 22 1005.0 - 0.0
23/03:00pm 31.2 32.5 26.5 76 3.4 W 32 37 17 20 1005.4 1005.3 0.0
23/02:30pm 31.3 33.3 26.3 75 3.6 WNW 28 35 15 19 1005.4 - 0.0
23/02:00pm 30.8 33.3 25.4 73 3.8 WNW 22 28 12 15 1006.0 - 0.0
23/01:30pm 30.6 32.5 25.0 72 3.9 WNW 24 30 13 16 1006.8 - 0.0
23/01:00pm 30.2 31.9 24.6 72 3.9 WNW 24 33 13 18 1007.2 - 0.0
23/12:30pm 30.1 30.9 24.5 72 3.9 W 28 39 15 21 1007.4 - 0.0
23/12:00pm 29.9 33.3 26.1 80 2.7 W 20 26 11 14 1007.8 1007.7 0.0
23/11:30am 29.9 32.6 25.0 75 3.4 W 20 24 11 13 1008.0 - 0.0
23/11:00am 29.2 31.4 23.9 73 3.7 WNW 19 22 10 12 1008.1 - 0.0
23/10:30am 29.0 32.2 25.6 82 2.4 WNW 19 22 10 12 1007.9 - 0.0
23/10:00am 28.6 30.2 25.2 82 2.4 WNW 26 33 14 18 1008.1 - 0.0
23/09:30am 28.7 29.4 24.9 80 2.7 WNW 30 37 16 20 1007.9 - 0.0
23/09:00am 29.0 30.9 25.6 82 2.4 W 26 37 14 20 1008.5 1008.4 39.4
23/08:30am 29.2 30.1 25.8 82 2.4 W 32 41 17 22 1008.0 - 39.4
23/08:00am 29.1 31.8 25.7 82 2.4 W 22 32 12 17 1007.1 - 39.4
23/07:30am 28.8 30.8 23.9 75 3.4 WSW 20 32 11 17 1006.4 - 39.4
23/07:00am 29.0 30.9 22.7 69 4.3 WSW 17 24 9 13 1005.1 - 39.4
23/06:30am 28.7 31.7 23.4 73 3.6 WSW 13 19 7 10 1004.9 - 39.4
23/06:00am 28.7 31.0 23.4 73 3.6 WSW 17 24 9 13 1005.3 1005.2 39.4
23/05:30am 28.6 31.0 23.7 75 3.4 SW 17 28 9 15 1005.0 - 39.4
23/05:00am 27.9 30.0 23.7 78 2.9 WSW 19 30 10 16 1005.4 - 39.4
23/04:30am 27.0 30.4 24.1 84 2.0 SW 13 28 7 15 1005.4 - 39.4
23/04:00am 26.3 29.2 23.2 83 2.1 SW 13 20 7 11 1005.6 - 39.4
23/03:30am 26.5 27.3 23.2 82 2.2 SW 24 35 13 19 1006.4 - 39.4
23/03:00am 25.3 27.1 23.5 90 1.2 SSW 20 41 11 22 1006.3 1006.2 39.4
23/02:30am 25.6 27.1 24.4 93 0.8 SSW 24 37 13 20 1006.6 - 39.0
23/02:00am 26.5 28.5 24.0 86 1.7 S 20 43 11 23 1007.3 - 29.4
23/01:48am 28.8 28.9 24.6 78 2.9 W 32 52 17 28 1007.0 - 29.2
23/01:30am 29.6 31.5 26.2 82 2.4 W 28 35 15 19 1007.6 - 29.2
23/01:00am 29.7 31.5 26.1 81 2.6 W 28 35 15 19 1007.9 - 29.2
23/12:30am 29.7 31.2 26.1 81 2.6 W 30 41 16 22 1007.5 - 29.2
23/12:00am 29.6 31.0 26.0 81 2.6 W 30 37 16 20 1007.2 1007.1 29.2
 
Date/Time
CST
Temp
°C
App
Temp
°C
Dew
Point
°C
Rel
Hum
%
Delta-T
°C
Wind Press
QNH
hPa
Press
MSL
hPa
Rain since
9am
mm
Dir  Spd
km/h
Gust
km/h
Spd
kts
Gust
kts
22/11:30pm 29.7 31.2 26.1 81 2.6 W 30 37 16 20 1007.2 - 29.2
22/11:00pm 29.8 31.6 26.6 83 2.3 W 30 39 16 21 1007.4 - 29.2
22/10:30pm 29.7 31.3 26.3 82 2.4 W 30 39 16 21 1007.7 - 29.2
22/10:00pm 29.7 31.3 26.3 82 2.4 W 30 37 16 20 1007.6 - 29.2
22/09:30pm 29.4 32.1 26.2 83 2.3 W 24 32 13 17 1007.6 - 29.2
22/09:00pm 29.1 32.7 26.5 86 1.9 W 20 26 11 14 1007.3 1007.2 29.2
22/08:30pm 28.7 31.9 25.9 85 2.0 WNW 20 26 11 14 1006.7 - 29.2
22/08:00pm 28.6 31.4 25.2 82 2.4 WNW 20 28 11 15 1006.3 - 29.2
22/07:30pm 28.5 30.7 24.9 81 2.5 WNW 22 26 12 14 1006.3 - 29.2
22/07:00pm 28.4 29.8 24.8 81 2.5 WNW 26 32 14 17 1005.9 - 29.2
22/06:30pm 28.7 30.5 24.9 80 2.7 WNW 24 32 13 17 1005.4 - 29.2
22/06:00pm 29.0 31.0 24.6 77 3.1 WNW 22 28 12 15 1004.9 1004.8 29.2
22/05:30pm 28.9 29.7 24.5 77 3.1 WNW 28 33 15 18 1005.0 - 29.2
22/05:00pm 28.6 30.4 25.4 83 2.3 WNW 26 32 14 17 1005.1 - 29.2
22/04:30pm 28.1 29.7 24.5 81 2.5 NW 24 32 13 17 1005.4 - 29.2
22/04:00pm 27.8 29.1 24.6 83 2.2 NW 26 33 14 18 1005.4 - 29.2
22/03:30pm 26.6 29.1 24.4 88 1.5 NW 19 24 10 13 1005.9 - 29.2
22/03:00pm 24.9 28.3 24.0 95 0.6 N 13 17 7 9 1006.2 1006.1 29.2
22/02:30pm 23.5 25.9 22.3 93 0.8 E 13 20 7 11 1007.9 - 29.0
22/02:00pm 23.7 26.1 22.9 95 0.5 E 15 24 8 13 1009.0 - 27.0
22/01:30pm 24.6 26.8 23.9 96 0.5 NNE 19 32 10 17 1008.8 - 19.4
22/01:00pm 23.8 26.1 22.8 94 0.7 E 15 24 8 13 1009.6 - 17.6
22/12:30pm 24.5 25.9 23.6 95 0.6 NNE 22 33 12 18 1009.9 - 15.8
22/12:00pm 23.8 23.3 22.2 91 1.1 E 28 54 15 29 1009.5 1009.4 9.0
22/11:37am 26.0 25.5 22.1 79 2.6 E 28 46 15 25 1009.1 - 0.2
22/11:30am 29.5 33.9 25.7 80 2.7 WSW 13 20 7 11 1009.6 - 0.0
22/11:00am 29.8 33.6 25.3 77 3.2 WSW 15 20 8 11 1009.5 - 0.0
22/10:30am 29.9 32.7 25.2 76 3.3 WSW 20 26 11 14 1009.3 - 0.0
22/10:00am 29.9 32.3 25.2 76 3.3 W 22 30 12 16 1009.3 - 0.0
22/09:30am 30.1 32.5 25.8 78 3.1 W 24 30 13 16 1008.7 - 0.0
22/09:00am 30.2 31.5 25.9 78 3.1 W 30 37 16 20 1008.6 1008.5 0.0
22/08:30am 30.0 32.5 26.0 79 2.8 W 24 33 13 18 1008.2 - 0.0
22/08:00am 29.7 31.7 25.7 79 2.8 W 26 33 14 18 1008.1 - 0.0
22/07:30am 29.7 32.2 25.9 80 2.7 W 24 32 13 17 1007.8 - 0.0
22/07:00am 29.6 32.0 25.8 80 2.7 W 24 33 13 18 1007.3 - 0.0
22/06:30am 29.8 32.5 26.2 81 2.6 W 24 32 13 17 1007.3 - 0.0
22/06:00am 29.7 31.8 25.9 80 2.7 W 26 35 14 19 1007.1 1007.0 0.0
22/05:30am 29.7 31.2 26.1 81 2.6 W 30 41 16 22 1006.7 - 0.0
22/05:00am 29.6 31.4 26.0 81 2.6 W 28 37 15 20 1006.4 - 0.0
22/04:30am 29.7 31.9 26.1 81 2.6 W 26 33 14 18 1006.7 - 0.0
22/04:00am 29.7 31.0 25.9 80 2.7 W 30 39 16 21 1006.8 - 0.0
22/03:30am 29.7 32.1 26.3 82 2.4 W 26 32 14 17 1007.2 - 0.0
22/03:00am 29.8 32.6 26.4 82 2.4 W 24 35 13 19 1007.6 1007.5 0.0
22/02:30am 29.7 31.8 25.9 80 2.7 W 26 33 14 18 1007.3 - 0.0
22/02:00am 29.7 31.5 26.1 81 2.6 W 28 33 15 18 1006.8 - 0.0
22/01:30am 29.7 32.3 26.1 81 2.6 W 24 30 13 16 1007.2 - 0.0
22/01:00am 29.7 32.7 26.1 81 2.6 W 22 32 12 17 1007.5 - 0.0
22/12:30am 29.7 32.2 25.9 80 2.7 W 24 32 13 17 1007.8 - 0.0
22/12:00am 29.7 32.9 25.9 80 2.7 W 20 28 11 15 1008.2 1008.1 0.0
 
Date/Time
CST
Temp
°C
App
Temp
°C
Dew
Point
°C
Rel
Hum
%
Delta-T
°C
Wind Press
QNH
hPa
Press
MSL
hPa
Rain since
9am
mm
Dir  Spd
km/h
Gust
km/h
Spd
kts
Gust
kts
21/11:30pm 29.8 32.7 26.0 80 2.7 W 22 28 12 15 1008.2 - 0.0
21/11:00pm 29.9 33.6 26.3 81 2.6 WSW 19 24 10 13 1008.2 - 0.0
21/10:30pm 29.9 33.5 25.6 78 3.0 WSW 17 20 9 11 1008.6 - 0.0
21/10:00pm 29.8 32.3 25.3 77 3.2 W 22 30 12 16 1008.3 - 0.0
21/09:30pm 30.0 32.6 25.5 77 3.2 W 22 28 12 15 1007.9 - 0.0
21/09:00pm 30.0 33.3 25.7 78 3.1 W 19 24 10 13 1008.0 1007.9 0.0
21/08:30pm 30.1 33.4 26.0 78 2.9 W 20 26 11 14 1007.5 - 0.0

Latest Capital City Observations: Canberra | Sydney | Melbourne | Brisbane | Adelaide | Perth | Hobart | Darwin

Other formats

Comma delimited format used in spreadsheet applications
http://www.bom.gov.au/fwo/IDD60901/IDD60901.94122.axf

JavaScript Object Notation format (JSON) in row-major order
http://www.bom.gov.au/fwo/IDD60901/IDD60901.94122.json

Data quality

Most of these data are generated automatically and are frequently updated. Quality checks on data are not normally performed. It is possible for incorrect values to appear. Refer to information at About Latest Weather Observations and please check the disclaimer before using these data.